sensor_id;sensor_type;location;lat;lon;timestamp;P1;durP1;ratioP1;P2;durP2;ratioP2
60472;SDS011;46318;52.716;6.444;2023-08-30T00:01:13;11.10;;;10.10;;
60472;SDS011;46318;52.716;6.444;2023-08-30T00:03:39;10.80;;;9.77;;
60472;SDS011;46318;52.716;6.444;2023-08-30T00:06:05;11.20;;;10.20;;
60472;SDS011;46318;52.716;6.444;2023-08-30T00:08:32;12.20;;;10.52;;
60472;SDS011;46318;52.716;6.444;2023-08-30T00:10:58;12.27;;;10.98;;
60472;SDS011;46318;52.716;6.444;2023-08-30T00:13:25;11.60;;;10.40;;
60472;SDS011;46318;52.716;6.444;2023-08-30T00:15:51;10.80;;;9.77;;
60472;SDS011;46318;52.716;6.444;2023-08-30T00:18:17;11.93;;;10.00;;
60472;SDS011;46318;52.716;6.444;2023-08-30T00:20:44;10.45;;;9.35;;
60472;SDS011;46318;52.716;6.444;2023-08-30T00:23:10;11.07;;;9.50;;
60472;SDS011;46318;52.716;6.444;2023-08-30T00:25:36;9.25;;;8.35;;
60472;SDS011;46318;52.716;6.444;2023-08-30T00:28:02;9.98;;;8.98;;
60472;SDS011;46318;52.716;6.444;2023-08-30T00:30:28;11.70;;;8.68;;
60472;SDS011;46318;52.716;6.444;2023-08-30T00:32:54;9.45;;;8.27;;
60472;SDS011;46318;52.716;6.444;2023-08-30T00:35:20;9.85;;;8.85;;
60472;SDS011;46318;52.716;6.444;2023-08-30T00:37:45;9.30;;;8.40;;
60472;SDS011;46318;52.716;6.444;2023-08-30T00:40:11;10.23;;;8.55;;
60472;SDS011;46318;52.716;6.444;2023-08-30T00:42:37;8.55;;;7.75;;
60472;SDS011;46318;52.716;6.444;2023-08-30T00:45:05;11.55;;;8.98;;
60472;SDS011;46318;52.716;6.444;2023-08-30T00:47:32;10.07;;;8.40;;
60472;SDS011;46318;52.716;6.444;2023-08-30T00:49:59;9.48;;;8.45;;
60472;SDS011;46318;52.716;6.444;2023-08-30T00:52:26;11.50;;;8.57;;
60472;SDS011;46318;52.716;6.444;2023-08-30T00:54:52;9.50;;;8.07;;
60472;SDS011;46318;52.716;6.444;2023-08-30T00:57:18;9.75;;;8.20;;
60472;SDS011;46318;52.716;6.444;2023-08-30T00:59:44;8.77;;;7.88;;
60472;SDS011;46318;52.716;6.444;2023-08-30T01:02:10;9.35;;;8.43;;
60472;SDS011;46318;52.716;6.444;2023-08-30T01:04:36;14.82;;;8.70;;
60472;SDS011;46318;52.716;6.444;2023-08-30T01:07:02;8.73;;;7.80;;
60472;SDS011;46318;52.716;6.444;2023-08-30T01:09:28;8.75;;;7.95;;
60472;SDS011;46318;52.716;6.444;2023-08-30T01:12:00;9.90;;;7.93;;
60472;SDS011;46318;52.716;6.444;2023-08-30T01:17:13;10.07;;;7.80;;
60472;SDS011;46318;52.716;6.444;2023-08-30T01:19:46;8.73;;;7.72;;
60472;SDS011;46318;52.716;6.444;2023-08-30T01:28:19;10.00;;;8.18;;
60472;SDS011;46318;52.716;6.444;2023-08-30T01:30:49;10.02;;;7.70;;
60472;SDS011;46318;52.716;6.444;2023-08-30T01:33:15;8.88;;;7.93;;
60472;SDS011;46318;52.716;6.444;2023-08-30T01:35:42;8.88;;;7.88;;
60472;SDS011;46318;52.716;6.444;2023-08-30T01:38:09;10.18;;;8.48;;
60472;SDS011;46318;52.716;6.444;2023-08-30T01:40:37;11.35;;;8.98;;
60472;SDS011;46318;52.716;6.444;2023-08-30T01:43:07;9.40;;;8.43;;
60472;SDS011;46318;52.716;6.444;2023-08-30T01:45:40;12.63;;;9.43;;
60472;SDS011;46318;52.716;6.444;2023-08-30T01:48:09;9.27;;;8.38;;
60472;SDS011;46318;52.716;6.444;2023-08-30T01:50:39;9.50;;;8.50;;
60472;SDS011;46318;52.716;6.444;2023-08-30T01:53:07;10.30;;;9.10;;
60472;SDS011;46318;52.716;6.444;2023-08-30T01:55:36;10.75;;;9.20;;
60472;SDS011;46318;52.716;6.444;2023-08-30T01:58:03;12.13;;;8.73;;
60472;SDS011;46318;52.716;6.444;2023-08-30T02:00:30;13.32;;;9.93;;
60472;SDS011;46318;52.716;6.444;2023-08-30T02:02:56;11.95;;;10.05;;
60472;SDS011;46318;52.716;6.444;2023-08-30T02:05:22;14.45;;;10.38;;
60472;SDS011;46318;52.716;6.444;2023-08-30T02:07:54;12.23;;;9.57;;
60472;SDS011;46318;52.716;6.444;2023-08-30T02:10:35;10.43;;;9.35;;
60472;SDS011;46318;52.716;6.444;2023-08-30T02:15:33;12.40;;;10.15;;
60472;SDS011;46318;52.716;6.444;2023-08-30T02:18:01;9.57;;;8.57;;
60472;SDS011;46318;52.716;6.444;2023-08-30T02:20:31;10.07;;;9.00;;
60472;SDS011;46318;52.716;6.444;2023-08-30T02:22:58;13.40;;;10.23;;
60472;SDS011;46318;52.716;6.444;2023-08-30T02:25:25;11.43;;;10.23;;
60472;SDS011;46318;52.716;6.444;2023-08-30T02:27:51;12.95;;;9.52;;
60472;SDS011;46318;52.716;6.444;2023-08-30T02:30:17;8.80;;;7.97;;
60472;SDS011;46318;52.716;6.444;2023-08-30T02:32:44;12.20;;;9.95;;
60472;SDS011;46318;52.716;6.444;2023-08-30T02:35:10;10.93;;;9.25;;
60472;SDS011;46318;52.716;6.444;2023-08-30T02:37:35;11.05;;;10.00;;
60472;SDS011;46318;52.716;6.444;2023-08-30T02:40:02;10.52;;;9.43;;
60472;SDS011;46318;52.716;6.444;2023-08-30T02:42:28;11.77;;;8.57;;
60472;SDS011;46318;52.716;6.444;2023-08-30T02:44:54;11.35;;;10.15;;
60472;SDS011;46318;52.716;6.444;2023-08-30T02:47:20;10.93;;;9.43;;
60472;SDS011;46318;52.716;6.444;2023-08-30T02:49:46;12.10;;;9.80;;
60472;SDS011;46318;52.716;6.444;2023-08-30T02:52:12;11.63;;;10.10;;
60472;SDS011;46318;52.716;6.444;2023-08-30T02:54:38;9.82;;;8.82;;
60472;SDS011;46318;52.716;6.444;2023-08-30T02:57:04;9.15;;;7.95;;
60472;SDS011;46318;52.716;6.444;2023-08-30T02:59:29;9.90;;;8.90;;
60472;SDS011;46318;52.716;6.444;2023-08-30T03:01:55;10.45;;;9.35;;
60472;SDS011;46318;52.716;6.444;2023-08-30T03:04:21;10.38;;;8.88;;
60472;SDS011;46318;52.716;6.444;2023-08-30T03:06:47;11.88;;;9.68;;
60472;SDS011;46318;52.716;6.444;2023-08-30T03:09:13;11.93;;;8.88;;
60472;SDS011;46318;52.716;6.444;2023-08-30T03:11:39;13.43;;;9.10;;
60472;SDS011;46318;52.716;6.444;2023-08-30T03:14:05;10.45;;;9.20;;
60472;SDS011;46318;52.716;6.444;2023-08-30T03:16:31;10.13;;;9.13;;
60472;SDS011;46318;52.716;6.444;2023-08-30T03:18:57;10.60;;;9.45;;
60472;SDS011;46318;52.716;6.444;2023-08-30T03:21:23;10.40;;;9.07;;
60472;SDS011;46318;52.716;6.444;2023-08-30T03:23:49;10.95;;;9.15;;
60472;SDS011;46318;52.716;6.444;2023-08-30T03:26:15;9.68;;;8.38;;
60472;SDS011;46318;52.716;6.444;2023-08-30T03:28:42;11.85;;;9.93;;
60472;SDS011;46318;52.716;6.444;2023-08-30T03:31:16;10.05;;;8.60;;
60472;SDS011;46318;52.716;6.444;2023-08-30T03:33:44;11.38;;;9.15;;
60472;SDS011;46318;52.716;6.444;2023-08-30T03:36:11;10.10;;;9.10;;
60472;SDS011;46318;52.716;6.444;2023-08-30T03:38:39;11.50;;;9.18;;
60472;SDS011;46318;52.716;6.444;2023-08-30T03:41:06;11.82;;;9.20;;
60472;SDS011;46318;52.716;6.444;2023-08-30T03:43:33;12.43;;;8.95;;
60472;SDS011;46318;52.716;6.444;2023-08-30T03:46:00;10.70;;;9.15;;
60472;SDS011;46318;52.716;6.444;2023-08-30T03:48:28;10.43;;;9.10;;
60472;SDS011;46318;52.716;6.444;2023-08-30T03:50:54;12.25;;;8.57;;
60472;SDS011;46318;52.716;6.444;2023-08-30T03:53:20;9.90;;;8.85;;
60472;SDS011;46318;52.716;6.444;2023-08-30T03:55:48;10.85;;;8.90;;
60472;SDS011;46318;52.716;6.444;2023-08-30T03:58:14;10.90;;;8.77;;
60472;SDS011;46318;52.716;6.444;2023-08-30T04:00:41;13.00;;;10.20;;
60472;SDS011;46318;52.716;6.444;2023-08-30T04:03:07;9.77;;;8.60;;
60472;SDS011;46318;52.716;6.444;2023-08-30T04:05:34;10.63;;;9.52;;
60472;SDS011;46318;52.716;6.444;2023-08-30T04:08:02;11.68;;;9.95;;
60472;SDS011;46318;52.716;6.444;2023-08-30T04:10:34;10.20;;;8.75;;
60472;SDS011;46318;52.716;6.444;2023-08-30T04:13:04;10.90;;;9.77;;
60472;SDS011;46318;52.716;6.444;2023-08-30T04:15:37;12.25;;;10.50;;
60472;SDS011;46318;52.716;6.444;2023-08-30T04:18:04;11.65;;;9.55;;
60472;SDS011;46318;52.716;6.444;2023-08-30T04:20:33;12.20;;;10.32;;
60472;SDS011;46318;52.716;6.444;2023-08-30T04:23:00;11.52;;;10.35;;
60472;SDS011;46318;52.716;6.444;2023-08-30T04:25:29;12.10;;;10.68;;
60472;SDS011;46318;52.716;6.444;2023-08-30T04:27:56;10.50;;;9.50;;
60472;SDS011;46318;52.716;6.444;2023-08-30T04:30:22;12.00;;;10.63;;
60472;SDS011;46318;52.716;6.444;2023-08-30T04:32:49;13.10;;;10.05;;
60472;SDS011;46318;52.716;6.444;2023-08-30T04:35:14;11.32;;;9.15;;
60472;SDS011;46318;52.716;6.444;2023-08-30T04:37:40;12.10;;;9.52;;
60472;SDS011;46318;52.716;6.444;2023-08-30T04:40:08;13.48;;;9.68;;
60472;SDS011;46318;52.716;6.444;2023-08-30T04:42:35;11.68;;;9.75;;
60472;SDS011;46318;52.716;6.444;2023-08-30T04:45:01;9.77;;;8.75;;
60472;SDS011;46318;52.716;6.444;2023-08-30T04:47:29;11.10;;;8.88;;
60472;SDS011;46318;52.716;6.444;2023-08-30T04:49:55;11.32;;;9.77;;
60472;SDS011;46318;52.716;6.444;2023-08-30T04:52:21;12.88;;;8.93;;
60472;SDS011;46318;52.716;6.444;2023-08-30T04:54:47;11.70;;;10.13;;
60472;SDS011;46318;52.716;6.444;2023-08-30T04:57:17;11.63;;;10.05;;
60472;SDS011;46318;52.716;6.444;2023-08-30T04:59:43;12.68;;;9.93;;
60472;SDS011;46318;52.716;6.444;2023-08-30T05:02:10;13.00;;;10.45;;
60472;SDS011;46318;52.716;6.444;2023-08-30T05:04:37;9.10;;;8.15;;
60472;SDS011;46318;52.716;6.444;2023-08-30T05:07:03;10.85;;;8.95;;
60472;SDS011;46318;52.716;6.444;2023-08-30T05:09:30;12.00;;;9.50;;
60472;SDS011;46318;52.716;6.444;2023-08-30T05:11:57;11.75;;;9.45;;
60472;SDS011;46318;52.716;6.444;2023-08-30T05:14:23;12.23;;;8.80;;
60472;SDS011;46318;52.716;6.444;2023-08-30T05:16:54;10.27;;;9.13;;
60472;SDS011;46318;52.716;6.444;2023-08-30T05:19:20;15.18;;;10.10;;
60472;SDS011;46318;52.716;6.444;2023-08-30T05:21:47;12.35;;;9.43;;
60472;SDS011;46318;52.716;6.444;2023-08-30T05:24:16;11.40;;;9.43;;
60472;SDS011;46318;52.716;6.444;2023-08-30T05:26:42;11.52;;;9.27;;
60472;SDS011;46318;52.716;6.444;2023-08-30T05:29:08;13.30;;;10.23;;
60472;SDS011;46318;52.716;6.444;2023-08-30T05:31:34;11.90;;;9.52;;
60472;SDS011;46318;52.716;6.444;2023-08-30T05:34:00;11.05;;;9.13;;
60472;SDS011;46318;52.716;6.444;2023-08-30T05:36:26;11.48;;;9.27;;
60472;SDS011;46318;52.716;6.444;2023-08-30T05:38:52;14.40;;;9.88;;
60472;SDS011;46318;52.716;6.444;2023-08-30T05:41:18;15.00;;;10.15;;
60472;SDS011;46318;52.716;6.444;2023-08-30T05:43:44;13.05;;;9.70;;
60472;SDS011;46318;52.716;6.444;2023-08-30T05:46:10;14.05;;;10.57;;
60472;SDS011;46318;52.716;6.444;2023-08-30T05:48:40;10.40;;;9.23;;
60472;SDS011;46318;52.716;6.444;2023-08-30T05:51:07;13.48;;;9.73;;
60472;SDS011;46318;52.716;6.444;2023-08-30T05:53:33;13.38;;;9.88;;
60472;SDS011;46318;52.716;6.444;2023-08-30T05:55:58;13.55;;;10.45;;
60472;SDS011;46318;52.716;6.444;2023-08-30T05:58:24;11.43;;;9.88;;
60472;SDS011;46318;52.716;6.444;2023-08-30T06:00:50;11.57;;;9.07;;
60472;SDS011;46318;52.716;6.444;2023-08-30T06:03:16;12.23;;;9.52;;
60472;SDS011;46318;52.716;6.444;2023-08-30T06:05:43;12.95;;;9.30;;
60472;SDS011;46318;52.716;6.444;2023-08-30T06:08:09;15.35;;;10.02;;
60472;SDS011;46318;52.716;6.444;2023-08-30T06:10:35;13.18;;;10.20;;
60472;SDS011;46318;52.716;6.444;2023-08-30T06:13:02;14.00;;;10.43;;
60472;SDS011;46318;52.716;6.444;2023-08-30T06:15:28;11.98;;;10.18;;
60472;SDS011;46318;52.716;6.444;2023-08-30T06:17:54;10.90;;;8.98;;
60472;SDS011;46318;52.716;6.444;2023-08-30T06:20:20;12.27;;;9.57;;
60472;SDS011;46318;52.716;6.444;2023-08-30T06:22:46;12.52;;;10.27;;
60472;SDS011;46318;52.716;6.444;2023-08-30T06:25:12;15.07;;;9.65;;
60472;SDS011;46318;52.716;6.444;2023-08-30T06:27:40;14.77;;;10.43;;
60472;SDS011;46318;52.716;6.444;2023-08-30T06:30:09;13.70;;;10.23;;
60472;SDS011;46318;52.716;6.444;2023-08-30T06:32:36;16.80;;;10.23;;
60472;SDS011;46318;52.716;6.444;2023-08-30T06:35:02;12.48;;;10.05;;
60472;SDS011;46318;52.716;6.444;2023-08-30T06:37:29;12.43;;;10.10;;
60472;SDS011;46318;52.716;6.444;2023-08-30T06:39:55;11.60;;;9.18;;
60472;SDS011;46318;52.716;6.444;2023-08-30T06:42:21;15.10;;;9.85;;
60472;SDS011;46318;52.716;6.444;2023-08-30T06:44:47;13.18;;;10.35;;
60472;SDS011;46318;52.716;6.444;2023-08-30T06:47:13;11.02;;;9.45;;
60472;SDS011;46318;52.716;6.444;2023-08-30T06:49:38;14.02;;;11.05;;
60472;SDS011;46318;52.716;6.444;2023-08-30T06:52:04;17.48;;;11.90;;
60472;SDS011;46318;52.716;6.444;2023-08-30T06:54:34;13.60;;;10.15;;
60472;SDS011;46318;52.716;6.444;2023-08-30T06:57:01;16.98;;;11.48;;
60472;SDS011;46318;52.716;6.444;2023-08-30T06:59:27;13.35;;;10.45;;
60472;SDS011;46318;52.716;6.444;2023-08-30T07:01:53;17.13;;;10.48;;
60472;SDS011;46318;52.716;6.444;2023-08-30T07:04:19;16.13;;;10.52;;
60472;SDS011;46318;52.716;6.444;2023-08-30T07:06:45;13.50;;;11.00;;
60472;SDS011;46318;52.716;6.444;2023-08-30T07:09:11;14.68;;;9.70;;
60472;SDS011;46318;52.716;6.444;2023-08-30T07:11:41;15.75;;;12.45;;
60472;SDS011;46318;52.716;6.444;2023-08-30T07:14:12;13.50;;;11.25;;
60472;SDS011;46318;52.716;6.444;2023-08-30T07:16:39;15.93;;;10.00;;
60472;SDS011;46318;52.716;6.444;2023-08-30T07:19:06;15.85;;;11.50;;
60472;SDS011;46318;52.716;6.444;2023-08-30T07:21:32;13.30;;;11.38;;
60472;SDS011;46318;52.716;6.444;2023-08-30T07:24:01;13.60;;;10.95;;
60472;SDS011;46318;52.716;6.444;2023-08-30T07:26:27;12.35;;;10.85;;
60472;SDS011;46318;52.716;6.444;2023-08-30T07:28:53;15.18;;;12.23;;
60472;SDS011;46318;52.716;6.444;2023-08-30T07:31:19;11.73;;;10.20;;
60472;SDS011;46318;52.716;6.444;2023-08-30T07:33:46;14.52;;;12.38;;
60472;SDS011;46318;52.716;6.444;2023-08-30T07:36:12;13.25;;;11.30;;
60472;SDS011;46318;52.716;6.444;2023-08-30T07:38:38;14.80;;;11.10;;
60472;SDS011;46318;52.716;6.444;2023-08-30T07:41:04;17.30;;;13.35;;
60472;SDS011;46318;52.716;6.444;2023-08-30T07:43:30;16.23;;;11.75;;
60472;SDS011;46318;52.716;6.444;2023-08-30T07:45:56;14.50;;;12.23;;
60472;SDS011;46318;52.716;6.444;2023-08-30T07:48:23;16.20;;;11.90;;
60472;SDS011;46318;52.716;6.444;2023-08-30T07:50:52;14.20;;;11.52;;
60472;SDS011;46318;52.716;6.444;2023-08-30T07:53:18;15.45;;;12.52;;
60472;SDS011;46318;52.716;6.444;2023-08-30T07:55:47;14.20;;;12.10;;
60472;SDS011;46318;52.716;6.444;2023-08-30T07:58:15;12.48;;;10.82;;
60472;SDS011;46318;52.716;6.444;2023-08-30T08:00:42;14.95;;;12.07;;
60472;SDS011;46318;52.716;6.444;2023-08-30T08:03:08;14.68;;;11.57;;
60472;SDS011;46318;52.716;6.444;2023-08-30T08:05:35;21.05;;;17.27;;
60472;SDS011;46318;52.716;6.444;2023-08-30T08:08:02;20.25;;;17.63;;
60472;SDS011;46318;52.716;6.444;2023-08-30T08:10:34;13.38;;;11.13;;
60472;SDS011;46318;52.716;6.444;2023-08-30T08:13:00;13.30;;;11.90;;
60472;SDS011;46318;52.716;6.444;2023-08-30T08:15:27;12.57;;;10.85;;
60472;SDS011;46318;52.716;6.444;2023-08-30T08:17:55;13.32;;;11.50;;
60472;SDS011;46318;52.716;6.444;2023-08-30T08:20:22;14.00;;;11.73;;
60472;SDS011;46318;52.716;6.444;2023-08-30T08:22:48;11.32;;;10.05;;
60472;SDS011;46318;52.716;6.444;2023-08-30T08:25:14;13.38;;;10.75;;
60472;SDS011;46318;52.716;6.444;2023-08-30T08:27:41;16.25;;;12.18;;
60472;SDS011;46318;52.716;6.444;2023-08-30T08:30:07;16.65;;;13.75;;
60472;SDS011;46318;52.716;6.444;2023-08-30T08:32:35;17.38;;;14.85;;
60472;SDS011;46318;52.716;6.444;2023-08-30T08:35:01;15.85;;;12.23;;
60472;SDS011;46318;52.716;6.444;2023-08-30T08:37:28;15.23;;;12.02;;
60472;SDS011;46318;52.716;6.444;2023-08-30T08:39:54;14.93;;;11.43;;
60472;SDS011;46318;52.716;6.444;2023-08-30T08:42:20;12.98;;;10.88;;
60472;SDS011;46318;52.716;6.444;2023-08-30T08:44:47;18.40;;;12.98;;
60472;SDS011;46318;52.716;6.444;2023-08-30T08:47:16;16.27;;;13.60;;
60472;SDS011;46318;52.716;6.444;2023-08-30T08:49:44;12.70;;;11.40;;
60472;SDS011;46318;52.716;6.444;2023-08-30T08:52:11;14.05;;;12.48;;
60472;SDS011;46318;52.716;6.444;2023-08-30T08:54:39;14.95;;;13.23;;
60472;SDS011;46318;52.716;6.444;2023-08-30T08:57:07;17.67;;;13.90;;
60472;SDS011;46318;52.716;6.444;2023-08-30T08:59:33;13.98;;;11.88;;
60472;SDS011;46318;52.716;6.444;2023-08-30T09:02:00;15.88;;;14.00;;
60472;SDS011;46318;52.716;6.444;2023-08-30T09:04:26;14.90;;;13.40;;
60472;SDS011;46318;52.716;6.444;2023-08-30T09:06:55;17.40;;;13.18;;
60472;SDS011;46318;52.716;6.444;2023-08-30T09:09:21;15.00;;;12.55;;
60472;SDS011;46318;52.716;6.444;2023-08-30T09:11:48;15.25;;;13.65;;
60472;SDS011;46318;52.716;6.444;2023-08-30T09:14:14;15.55;;;13.68;;
60472;SDS011;46318;52.716;6.444;2023-08-30T09:16:40;12.63;;;11.15;;
60472;SDS011;46318;52.716;6.444;2023-08-30T09:19:06;14.65;;;13.07;;
60472;SDS011;46318;52.716;6.444;2023-08-30T09:21:35;12.90;;;11.60;;
60472;SDS011;46318;52.716;6.444;2023-08-30T09:24:05;14.60;;;12.57;;
60472;SDS011;46318;52.716;6.444;2023-08-30T09:26:32;14.55;;;11.30;;
60472;SDS011;46318;52.716;6.444;2023-08-30T09:29:06;13.18;;;10.98;;
60472;SDS011;46318;52.716;6.444;2023-08-30T09:31:34;14.00;;;11.15;;
60472;SDS011;46318;52.716;6.444;2023-08-30T09:34:02;11.27;;;9.73;;
60472;SDS011;46318;52.716;6.444;2023-08-30T09:36:35;10.95;;;9.75;;
60472;SDS011;46318;52.716;6.444;2023-08-30T09:39:07;10.65;;;9.23;;
60472;SDS011;46318;52.716;6.444;2023-08-30T09:41:48;10.32;;;9.25;;
60472;SDS011;46318;52.716;6.444;2023-08-30T09:44:16;10.23;;;8.57;;
60472;SDS011;46318;52.716;6.444;2023-08-30T09:46:44;9.02;;;8.10;;
60472;SDS011;46318;52.716;6.444;2023-08-30T09:49:21;12.20;;;9.40;;
60472;SDS011;46318;52.716;6.444;2023-08-30T09:54:19;9.30;;;7.63;;
60472;SDS011;46318;52.716;6.444;2023-08-30T09:56:48;11.93;;;9.07;;
60472;SDS011;46318;52.716;6.444;2023-08-30T09:59:17;11.15;;;9.93;;
60472;SDS011;46318;52.716;6.444;2023-08-30T10:01:46;17.20;;;13.45;;
60472;SDS011;46318;52.716;6.444;2023-08-30T10:04:19;10.77;;;9.52;;
60472;SDS011;46318;52.716;6.444;2023-08-30T10:06:48;13.65;;;10.85;;
60472;SDS011;46318;52.716;6.444;2023-08-30T10:09:16;10.90;;;9.15;;
60472;SDS011;46318;52.716;6.444;2023-08-30T10:11:44;10.45;;;8.98;;
60472;SDS011;46318;52.716;6.444;2023-08-30T10:14:13;10.10;;;9.10;;
60472;SDS011;46318;52.716;6.444;2023-08-30T10:16:40;10.23;;;9.23;;
60472;SDS011;46318;52.716;6.444;2023-08-30T10:24:10;10.52;;;7.55;;
60472;SDS011;46318;52.716;6.444;2023-08-30T10:26:41;11.82;;;8.80;;
60472;SDS011;46318;52.716;6.444;2023-08-30T10:29:10;10.88;;;9.77;;
60472;SDS011;46318;52.716;6.444;2023-08-30T10:31:38;11.88;;;9.98;;
60472;SDS011;46318;52.716;6.444;2023-08-30T10:34:11;10.70;;;9.77;;
60472;SDS011;46318;52.716;6.444;2023-08-30T10:36:42;12.93;;;9.60;;
60472;SDS011;46318;52.716;6.444;2023-08-30T10:39:12;10.32;;;9.32;;
60472;SDS011;46318;52.716;6.444;2023-08-30T10:41:55;9.63;;;8.40;;
60472;SDS011;46318;52.716;6.444;2023-08-30T10:44:23;11.40;;;9.07;;
60472;SDS011;46318;52.716;6.444;2023-08-30T10:46:53;11.35;;;10.15;;
60472;SDS011;46318;52.716;6.444;2023-08-30T10:49:19;10.68;;;9.68;;
60472;SDS011;46318;52.716;6.444;2023-08-30T10:51:53;10.77;;;9.65;;
60472;SDS011;46318;52.716;6.444;2023-08-30T10:54:24;10.32;;;9.32;;
60472;SDS011;46318;52.716;6.444;2023-08-30T10:56:57;11.38;;;10.18;;
60472;SDS011;46318;52.716;6.444;2023-08-30T10:59:26;11.27;;;10.18;;
60472;SDS011;46318;52.716;6.444;2023-08-30T11:01:54;10.30;;;9.30;;
60472;SDS011;46318;52.716;6.444;2023-08-30T11:04:21;10.38;;;9.27;;
60472;SDS011;46318;52.716;6.444;2023-08-30T11:06:49;10.02;;;9.02;;
60472;SDS011;46318;52.716;6.444;2023-08-30T11:09:17;11.05;;;9.85;;
60472;SDS011;46318;52.716;6.444;2023-08-30T11:11:46;12.82;;;10.77;;
60472;SDS011;46318;52.716;6.444;2023-08-30T11:14:13;10.88;;;9.70;;
60472;SDS011;46318;52.716;6.444;2023-08-30T11:16:41;11.65;;;10.45;;
60472;SDS011;46318;52.716;6.444;2023-08-30T11:19:07;10.73;;;9.20;;
60472;SDS011;46318;52.716;6.444;2023-08-30T11:21:39;10.32;;;9.32;;
60472;SDS011;46318;52.716;6.444;2023-08-30T11:24:09;11.50;;;10.30;;
60472;SDS011;46318;52.716;6.444;2023-08-30T11:26:36;9.93;;;8.98;;
60472;SDS011;46318;52.716;6.444;2023-08-30T11:29:05;11.90;;;9.90;;
60472;SDS011;46318;52.716;6.444;2023-08-30T11:31:33;11.67;;;10.57;;
60472;SDS011;46318;52.716;6.444;2023-08-30T11:34:00;11.18;;;10.02;;
60472;SDS011;46318;52.716;6.444;2023-08-30T11:36:30;10.88;;;9.88;;
60472;SDS011;46318;52.716;6.444;2023-08-30T11:38:58;10.47;;;9.20;;
60472;SDS011;46318;52.716;6.444;2023-08-30T11:41:24;11.13;;;10.13;;
60472;SDS011;46318;52.716;6.444;2023-08-30T11:43:51;9.80;;;8.80;;
60472;SDS011;46318;52.716;6.444;2023-08-30T11:46:25;10.98;;;9.88;;
60472;SDS011;46318;52.716;6.444;2023-08-30T11:49:18;9.48;;;8.57;;
60472;SDS011;46318;52.716;6.444;2023-08-30T11:51:45;10.00;;;8.73;;
60472;SDS011;46318;52.716;6.444;2023-08-30T11:54:12;9.55;;;8.65;;
60472;SDS011;46318;52.716;6.444;2023-08-30T11:56:38;10.52;;;9.35;;
60472;SDS011;46318;52.716;6.444;2023-08-30T11:59:20;11.18;;;10.15;;
60472;SDS011;46318;52.716;6.444;2023-08-30T12:01:54;10.50;;;9.50;;
60472;SDS011;46318;52.716;6.444;2023-08-30T12:04:20;10.05;;;9.07;;
60472;SDS011;46318;52.716;6.444;2023-08-30T12:06:52;10.02;;;9.02;;
60472;SDS011;46318;52.716;6.444;2023-08-30T12:09:31;10.23;;;9.23;;
60472;SDS011;46318;52.716;6.444;2023-08-30T12:12:08;9.35;;;8.55;;
60472;SDS011;46318;52.716;6.444;2023-08-30T12:14:36;10.40;;;9.43;;
60472;SDS011;46318;52.716;6.444;2023-08-30T12:17:04;9.50;;;8.50;;
60472;SDS011;46318;52.716;6.444;2023-08-30T12:19:31;10.32;;;9.30;;
60472;SDS011;46318;52.716;6.444;2023-08-30T12:22:07;8.77;;;7.97;;
60472;SDS011;46318;52.716;6.444;2023-08-30T12:24:45;8.73;;;7.93;;
60472;SDS011;46318;52.716;6.444;2023-08-30T12:27:21;9.55;;;8.65;;
60472;SDS011;46318;52.716;6.444;2023-08-30T12:29:52;9.00;;;8.07;;
60472;SDS011;46318;52.716;6.444;2023-08-30T12:32:21;9.57;;;8.55;;
60472;SDS011;46318;52.716;6.444;2023-08-30T12:34:47;10.50;;;9.60;;
60472;SDS011;46318;52.716;6.444;2023-08-30T12:37:13;9.25;;;8.38;;
60472;SDS011;46318;52.716;6.444;2023-08-30T12:39:39;7.97;;;7.28;;
60472;SDS011;46318;52.716;6.444;2023-08-30T12:42:05;8.30;;;7.60;;
60472;SDS011;46318;52.716;6.444;2023-08-30T12:44:31;7.90;;;7.30;;
60472;SDS011;46318;52.716;6.444;2023-08-30T12:46:57;7.82;;;7.13;;
60472;SDS011;46318;52.716;6.444;2023-08-30T12:49:31;7.93;;;7.15;;
60472;SDS011;46318;52.716;6.444;2023-08-30T12:52:00;6.97;;;6.38;;
60472;SDS011;46318;52.716;6.444;2023-08-30T12:54:28;6.88;;;6.32;;
60472;SDS011;46318;52.716;6.444;2023-08-30T12:56:54;6.90;;;6.30;;
60472;SDS011;46318;52.716;6.444;2023-08-30T12:59:20;7.47;;;6.78;;
60472;SDS011;46318;52.716;6.444;2023-08-30T13:01:46;7.82;;;7.13;;
60472;SDS011;46318;52.716;6.444;2023-08-30T13:04:15;7.68;;;7.03;;
60472;SDS011;46318;52.716;6.444;2023-08-30T13:06:41;7.93;;;7.22;;
60472;SDS011;46318;52.716;6.444;2023-08-30T13:09:07;7.32;;;6.65;;
60472;SDS011;46318;52.716;6.444;2023-08-30T13:11:33;8.23;;;7.53;;
60472;SDS011;46318;52.716;6.444;2023-08-30T13:13:59;7.82;;;7.15;;
60472;SDS011;46318;52.716;6.444;2023-08-30T13:16:25;9.25;;;8.50;;
60472;SDS011;46318;52.716;6.444;2023-08-30T13:18:51;9.43;;;8.63;;
60472;SDS011;46318;52.716;6.444;2023-08-30T13:21:17;10.35;;;9.30;;
60472;SDS011;46318;52.716;6.444;2023-08-30T13:23:43;9.60;;;8.80;;
60472;SDS011;46318;52.716;6.444;2023-08-30T13:26:12;10.10;;;9.20;;
60472;SDS011;46318;52.716;6.444;2023-08-30T13:28:38;9.75;;;8.95;;
60472;SDS011;46318;52.716;6.444;2023-08-30T13:31:06;10.38;;;9.48;;
60472;SDS011;46318;52.716;6.444;2023-08-30T13:33:33;10.43;;;9.52;;
60472;SDS011;46318;52.716;6.444;2023-08-30T13:35:59;9.68;;;8.88;;
60472;SDS011;46318;52.716;6.444;2023-08-30T13:38:25;9.88;;;9.07;;
60472;SDS011;46318;52.716;6.444;2023-08-30T13:40:57;8.85;;;8.15;;
60472;SDS011;46318;52.716;6.444;2023-08-30T13:43:25;8.80;;;8.05;;
60472;SDS011;46318;52.716;6.444;2023-08-30T13:46:00;8.98;;;8.18;;
60472;SDS011;46318;52.716;6.444;2023-08-30T13:48:26;7.97;;;7.38;;
60472;SDS011;46318;52.716;6.444;2023-08-30T13:50:52;7.60;;;7.00;;
60472;SDS011;46318;52.716;6.444;2023-08-30T13:53:18;7.97;;;7.43;;
60472;SDS011;46318;52.716;6.444;2023-08-30T13:55:45;6.15;;;5.72;;
60472;SDS011;46318;52.716;6.444;2023-08-30T13:58:15;3.30;;;3.00;;
60472;SDS011;46318;52.716;6.444;2023-08-30T14:00:44;2.65;;;2.45;;
60472;SDS011;46318;52.716;6.444;2023-08-30T14:03:15;2.67;;;2.47;;
60472;SDS011;46318;52.716;6.444;2023-08-30T14:05:43;3.20;;;3.00;;
60472;SDS011;46318;52.716;6.444;2023-08-30T14:08:36;3.72;;;3.42;;
60472;SDS011;46318;52.716;6.444;2023-08-30T14:11:34;2.17;;;1.88;;
60472;SDS011;46318;52.716;6.444;2023-08-30T14:14:02;1.50;;;1.40;;
60472;SDS011;46318;52.716;6.444;2023-08-30T14:16:29;2.65;;;2.45;;
60472;SDS011;46318;52.716;6.444;2023-08-30T14:18:57;1.77;;;1.67;;
60472;SDS011;46318;52.716;6.444;2023-08-30T14:21:25;2.20;;;2.00;;
60472;SDS011;46318;52.716;6.444;2023-08-30T14:23:52;2.30;;;2.10;;
60472;SDS011;46318;52.716;6.444;2023-08-30T14:26:18;2.03;;;1.92;;
60472;SDS011;46318;52.716;6.444;2023-08-30T14:28:47;2.65;;;2.55;;
60472;SDS011;46318;52.716;6.444;2023-08-30T14:31:13;3.17;;;2.97;;
60472;SDS011;46318;52.716;6.444;2023-08-30T14:33:42;3.10;;;2.90;;
60472;SDS011;46318;52.716;6.444;2023-08-30T14:36:12;3.08;;;2.85;;
60472;SDS011;46318;52.716;6.444;2023-08-30T14:38:39;4.78;;;3.42;;
60472;SDS011;46318;52.716;6.444;2023-08-30T14:41:06;3.70;;;3.30;;
60472;SDS011;46318;52.716;6.444;2023-08-30T14:43:33;3.70;;;3.40;;
60472;SDS011;46318;52.716;6.444;2023-08-30T14:45:59;4.45;;;3.50;;
60472;SDS011;46318;52.716;6.444;2023-08-30T14:48:30;4.55;;;4.15;;
60472;SDS011;46318;52.716;6.444;2023-08-30T14:50:58;4.22;;;3.60;;
60472;SDS011;46318;52.716;6.444;2023-08-30T14:53:25;4.78;;;3.95;;
60472;SDS011;46318;52.716;6.444;2023-08-30T14:55:51;4.45;;;4.05;;